sensor_id;sensor_type;location;lat;lon;timestamp;P1;durP1;ratioP1;P2;durP2;ratioP2
53271;SDS011;39160;48.580;7.756;2023-05-14T00:01:33;3.28;;;2.40;;
53271;SDS011;39160;48.580;7.756;2023-05-14T00:06:25;5.57;;;3.80;;
53271;SDS011;39160;48.580;7.756;2023-05-14T00:11:15;4.40;;;2.88;;
53271;SDS011;39160;48.580;7.756;2023-05-14T00:16:07;3.45;;;2.35;;
53271;SDS011;39160;48.580;7.756;2023-05-14T00:20:58;3.63;;;2.67;;
53271;SDS011;39160;48.580;7.756;2023-05-14T00:25:48;3.90;;;2.65;;
53271;SDS011;39160;48.580;7.756;2023-05-14T00:30:39;4.32;;;3.25;;
53271;SDS011;39160;48.580;7.756;2023-05-14T00:35:30;4.88;;;3.05;;
53271;SDS011;39160;48.580;7.756;2023-05-14T00:40:22;5.07;;;3.40;;
53271;SDS011;39160;48.580;7.756;2023-05-14T00:45:15;3.70;;;3.13;;
53271;SDS011;39160;48.580;7.756;2023-05-14T00:50:06;3.78;;;3.00;;
53271;SDS011;39160;48.580;7.756;2023-05-14T00:54:58;4.75;;;3.53;;
53271;SDS011;39160;48.580;7.756;2023-05-14T00:59:49;5.78;;;2.90;;
53271;SDS011;39160;48.580;7.756;2023-05-14T01:04:40;3.97;;;2.67;;
53271;SDS011;39160;48.580;7.756;2023-05-14T01:09:47;3.72;;;3.00;;
53271;SDS011;39160;48.580;7.756;2023-05-14T01:19:46;3.38;;;2.65;;
53271;SDS011;39160;48.580;7.756;2023-05-14T01:24:38;4.45;;;2.95;;
53271;SDS011;39160;48.580;7.756;2023-05-14T01:29:28;4.43;;;3.10;;
53271;SDS011;39160;48.580;7.756;2023-05-14T01:34:22;7.05;;;3.30;;
53271;SDS011;39160;48.580;7.756;2023-05-14T01:39:14;4.20;;;3.10;;
53271;SDS011;39160;48.580;7.756;2023-05-14T01:44:05;4.70;;;3.33;;
53271;SDS011;39160;48.580;7.756;2023-05-14T01:48:58;4.05;;;3.08;;
53271;SDS011;39160;48.580;7.756;2023-05-14T01:53:48;4.85;;;3.30;;
53271;SDS011;39160;48.580;7.756;2023-05-14T01:58:40;5.03;;;3.53;;
53271;SDS011;39160;48.580;7.756;2023-05-14T02:03:30;7.28;;;3.42;;
53271;SDS011;39160;48.580;7.756;2023-05-14T02:08:21;4.68;;;3.63;;
53271;SDS011;39160;48.580;7.756;2023-05-14T02:13:13;4.40;;;3.50;;
53271;SDS011;39160;48.580;7.756;2023-05-14T02:18:03;4.85;;;3.83;;
53271;SDS011;39160;48.580;7.756;2023-05-14T02:22:54;4.97;;;3.78;;
53271;SDS011;39160;48.580;7.756;2023-05-14T02:27:45;4.30;;;3.22;;
53271;SDS011;39160;48.580;7.756;2023-05-14T02:32:36;6.90;;;3.97;;
53271;SDS011;39160;48.580;7.756;2023-05-14T02:37:26;6.20;;;3.20;;
53271;SDS011;39160;48.580;7.756;2023-05-14T02:42:17;6.03;;;3.28;;
53271;SDS011;39160;48.580;7.756;2023-05-14T02:47:08;6.40;;;3.63;;
53271;SDS011;39160;48.580;7.756;2023-05-14T02:51:58;5.20;;;3.85;;
53271;SDS011;39160;48.580;7.756;2023-05-14T02:56:49;5.60;;;3.30;;
53271;SDS011;39160;48.580;7.756;2023-05-14T03:01:40;4.43;;;2.97;;
53271;SDS011;39160;48.580;7.756;2023-05-14T03:06:31;5.50;;;3.67;;
53271;SDS011;39160;48.580;7.756;2023-05-14T03:11:22;5.25;;;3.47;;
53271;SDS011;39160;48.580;7.756;2023-05-14T03:16:12;5.15;;;3.80;;
53271;SDS011;39160;48.580;7.756;2023-05-14T03:21:03;5.53;;;3.72;;
53271;SDS011;39160;48.580;7.756;2023-05-14T03:25:54;3.78;;;3.28;;
53271;SDS011;39160;48.580;7.756;2023-05-14T03:30:45;4.65;;;3.63;;
53271;SDS011;39160;48.580;7.756;2023-05-14T03:35:36;6.80;;;3.72;;
53271;SDS011;39160;48.580;7.756;2023-05-14T03:40:26;5.65;;;3.67;;
53271;SDS011;39160;48.580;7.756;2023-05-14T03:45:17;6.32;;;4.43;;
53271;SDS011;39160;48.580;7.756;2023-05-14T03:50:08;4.00;;;3.28;;
53271;SDS011;39160;48.580;7.756;2023-05-14T03:54:59;6.68;;;4.22;;
53271;SDS011;39160;48.580;7.756;2023-05-14T03:59:49;4.65;;;3.70;;
53271;SDS011;39160;48.580;7.756;2023-05-14T04:04:40;4.82;;;3.38;;
53271;SDS011;39160;48.580;7.756;2023-05-14T04:09:31;3.42;;;2.95;;
53271;SDS011;39160;48.580;7.756;2023-05-14T04:14:21;4.90;;;3.55;;
53271;SDS011;39160;48.580;7.756;2023-05-14T04:19:12;4.32;;;2.90;;
53271;SDS011;39160;48.580;7.756;2023-05-14T04:24:03;5.43;;;3.65;;
53271;SDS011;39160;48.580;7.756;2023-05-14T04:28:54;4.28;;;3.28;;
53271;SDS011;39160;48.580;7.756;2023-05-14T04:33:44;4.80;;;2.88;;
53271;SDS011;39160;48.580;7.756;2023-05-14T04:38:35;4.18;;;3.05;;
53271;SDS011;39160;48.580;7.756;2023-05-14T04:43:26;4.43;;;3.25;;
53271;SDS011;39160;48.580;7.756;2023-05-14T04:48:17;4.47;;;3.22;;
53271;SDS011;39160;48.580;7.756;2023-05-14T04:53:07;4.43;;;3.25;;
53271;SDS011;39160;48.580;7.756;2023-05-14T04:57:58;6.80;;;3.88;;
53271;SDS011;39160;48.580;7.756;2023-05-14T05:02:49;4.32;;;3.35;;
53271;SDS011;39160;48.580;7.756;2023-05-14T05:07:39;5.85;;;3.08;;
53271;SDS011;39160;48.580;7.756;2023-05-14T05:12:30;4.93;;;3.53;;
53271;SDS011;39160;48.580;7.756;2023-05-14T05:17:21;5.13;;;3.28;;
53271;SDS011;39160;48.580;7.756;2023-05-14T05:22:11;5.10;;;3.47;;
53271;SDS011;39160;48.580;7.756;2023-05-14T05:27:02;5.55;;;3.30;;
53271;SDS011;39160;48.580;7.756;2023-05-14T05:31:54;3.47;;;2.90;;
53271;SDS011;39160;48.580;7.756;2023-05-14T05:36:45;3.35;;;3.00;;
53271;SDS011;39160;48.580;7.756;2023-05-14T05:41:35;5.47;;;3.60;;
53271;SDS011;39160;48.580;7.756;2023-05-14T05:46:26;10.57;;;3.08;;
53271;SDS011;39160;48.580;7.756;2023-05-14T05:51:16;5.20;;;3.20;;
53271;SDS011;39160;48.580;7.756;2023-05-14T05:56:07;3.50;;;3.08;;
53271;SDS011;39160;48.580;7.756;2023-05-14T06:00:58;4.05;;;3.25;;
53271;SDS011;39160;48.580;7.756;2023-05-14T06:05:49;4.70;;;3.45;;
53271;SDS011;39160;48.580;7.756;2023-05-14T06:10:41;3.60;;;3.28;;
53271;SDS011;39160;48.580;7.756;2023-05-14T06:15:32;3.88;;;3.10;;
53271;SDS011;39160;48.580;7.756;2023-05-14T06:20:22;6.15;;;3.22;;
53271;SDS011;39160;48.580;7.756;2023-05-14T06:25:13;6.50;;;3.38;;
53271;SDS011;39160;48.580;7.756;2023-05-14T06:30:04;3.97;;;3.28;;
53271;SDS011;39160;48.580;7.756;2023-05-14T06:34:55;4.63;;;3.30;;
53271;SDS011;39160;48.580;7.756;2023-05-14T06:39:46;5.53;;;2.88;;
53271;SDS011;39160;48.580;7.756;2023-05-14T06:44:39;4.50;;;3.20;;
53271;SDS011;39160;48.580;7.756;2023-05-14T06:49:30;8.15;;;3.55;;
53271;SDS011;39160;48.580;7.756;2023-05-14T06:54:20;4.95;;;3.25;;
53271;SDS011;39160;48.580;7.756;2023-05-14T06:59:11;4.90;;;3.03;;
53271;SDS011;39160;48.580;7.756;2023-05-14T07:04:02;6.75;;;3.70;;
53271;SDS011;39160;48.580;7.756;2023-05-14T07:08:52;4.30;;;3.00;;
53271;SDS011;39160;48.580;7.756;2023-05-14T07:13:43;9.20;;;3.58;;
53271;SDS011;39160;48.580;7.756;2023-05-14T07:18:33;8.40;;;3.25;;
53271;SDS011;39160;48.580;7.756;2023-05-14T07:23:24;6.60;;;3.45;;
53271;SDS011;39160;48.580;7.756;2023-05-14T07:28:15;4.35;;;3.05;;
53271;SDS011;39160;48.580;7.756;2023-05-14T07:33:06;7.18;;;3.78;;
53271;SDS011;39160;48.580;7.756;2023-05-14T07:37:56;5.03;;;3.90;;
53271;SDS011;39160;48.580;7.756;2023-05-14T07:42:47;4.65;;;3.17;;
53271;SDS011;39160;48.580;7.756;2023-05-14T07:47:38;5.28;;;3.55;;
53271;SDS011;39160;48.580;7.756;2023-05-14T07:52:29;5.93;;;3.78;;
53271;SDS011;39160;48.580;7.756;2023-05-14T07:57:20;5.75;;;3.85;;
53271;SDS011;39160;48.580;7.756;2023-05-14T08:02:11;6.03;;;3.80;;
53271;SDS011;39160;48.580;7.756;2023-05-14T08:07:02;6.47;;;4.13;;
53271;SDS011;39160;48.580;7.756;2023-05-14T08:11:53;6.57;;;4.20;;
53271;SDS011;39160;48.580;7.756;2023-05-14T08:16:43;6.30;;;4.68;;
53271;SDS011;39160;48.580;7.756;2023-05-14T08:21:34;5.25;;;3.42;;
53271;SDS011;39160;48.580;7.756;2023-05-14T08:26:25;4.93;;;3.75;;
53271;SDS011;39160;48.580;7.756;2023-05-14T08:31:15;4.88;;;3.83;;
53271;SDS011;39160;48.580;7.756;2023-05-14T08:36:06;5.28;;;3.10;;
53271;SDS011;39160;48.580;7.756;2023-05-14T08:40:57;7.50;;;4.70;;
53271;SDS011;39160;48.580;7.756;2023-05-14T08:45:48;4.38;;;3.47;;
53271;SDS011;39160;48.580;7.756;2023-05-14T08:50:46;5.68;;;3.83;;
53271;SDS011;39160;48.580;7.756;2023-05-14T08:55:37;3.75;;;2.47;;
53271;SDS011;39160;48.580;7.756;2023-05-14T09:00:28;3.72;;;2.63;;
53271;SDS011;39160;48.580;7.756;2023-05-14T09:05:18;3.95;;;2.75;;
53271;SDS011;39160;48.580;7.756;2023-05-14T09:10:11;4.85;;;2.95;;
53271;SDS011;39160;48.580;7.756;2023-05-14T09:15:02;3.03;;;2.58;;
53271;SDS011;39160;48.580;7.756;2023-05-14T09:19:53;4.30;;;2.88;;
53271;SDS011;39160;48.580;7.756;2023-05-14T09:24:45;5.13;;;2.97;;
53271;SDS011;39160;48.580;7.756;2023-05-14T09:29:35;5.75;;;2.78;;
53271;SDS011;39160;48.580;7.756;2023-05-14T09:34:27;4.78;;;3.17;;
53271;SDS011;39160;48.580;7.756;2023-05-14T09:39:19;4.45;;;2.97;;
53271;SDS011;39160;48.580;7.756;2023-05-14T09:44:11;3.80;;;2.28;;
53271;SDS011;39160;48.580;7.756;2023-05-14T09:49:01;7.82;;;4.43;;
53271;SDS011;39160;48.580;7.756;2023-05-14T09:53:52;5.55;;;3.17;;
53271;SDS011;39160;48.580;7.756;2023-05-14T09:58:43;3.70;;;2.40;;
53271;SDS011;39160;48.580;7.756;2023-05-14T10:03:33;3.08;;;2.08;;
53271;SDS011;39160;48.580;7.756;2023-05-14T10:08:29;2.75;;;1.92;;
53271;SDS011;39160;48.580;7.756;2023-05-14T10:13:27;1.77;;;1.48;;
53271;SDS011;39160;48.580;7.756;2023-05-14T10:18:22;1.98;;;1.52;;
53271;SDS011;39160;48.580;7.756;2023-05-14T10:23:13;2.33;;;1.58;;
53271;SDS011;39160;48.580;7.756;2023-05-14T10:28:04;3.30;;;2.17;;
53271;SDS011;39160;48.580;7.756;2023-05-14T10:33:05;4.85;;;3.08;;
53271;SDS011;39160;48.580;7.756;2023-05-14T10:37:57;3.50;;;2.13;;
53271;SDS011;39160;48.580;7.756;2023-05-14T10:42:48;2.97;;;2.05;;
53271;SDS011;39160;48.580;7.756;2023-05-14T10:47:41;2.40;;;1.95;;
53271;SDS011;39160;48.580;7.756;2023-05-14T10:52:34;2.85;;;2.15;;
53271;SDS011;39160;48.580;7.756;2023-05-14T10:57:28;4.70;;;2.97;;
53271;SDS011;39160;48.580;7.756;2023-05-14T11:07:11;1.73;;;1.58;;
53271;SDS011;39160;48.580;7.756;2023-05-14T11:12:02;2.67;;;2.22;;
53271;SDS011;39160;48.580;7.756;2023-05-14T11:16:53;3.40;;;2.47;;
53271;SDS011;39160;48.580;7.756;2023-05-14T11:21:46;3.47;;;2.15;;
53271;SDS011;39160;48.580;7.756;2023-05-14T11:26:36;3.08;;;2.60;;
53271;SDS011;39160;48.580;7.756;2023-05-14T11:31:27;3.50;;;2.42;;
53271;SDS011;39160;48.580;7.756;2023-05-14T11:36:18;3.28;;;2.00;;
53271;SDS011;39160;48.580;7.756;2023-05-14T11:41:09;3.90;;;2.67;;
53271;SDS011;39160;48.580;7.756;2023-05-14T11:45:59;2.80;;;1.98;;
53271;SDS011;39160;48.580;7.756;2023-05-14T11:50:51;2.90;;;1.88;;
53271;SDS011;39160;48.580;7.756;2023-05-14T11:55:41;2.63;;;1.77;;
53271;SDS011;39160;48.580;7.756;2023-05-14T12:00:32;2.70;;;2.08;;
53271;SDS011;39160;48.580;7.756;2023-05-14T12:05:23;4.10;;;2.28;;
53271;SDS011;39160;48.580;7.756;2023-05-14T12:10:14;2.35;;;1.83;;
53271;SDS011;39160;48.580;7.756;2023-05-14T12:15:11;2.22;;;1.58;;
53271;SDS011;39160;48.580;7.756;2023-05-14T12:20:02;3.17;;;2.30;;
53271;SDS011;39160;48.580;7.756;2023-05-14T12:24:54;2.00;;;1.80;;
53271;SDS011;39160;48.580;7.756;2023-05-14T12:29:46;2.10;;;1.85;;
53271;SDS011;39160;48.580;7.756;2023-05-14T12:34:37;3.30;;;2.20;;
53271;SDS011;39160;48.580;7.756;2023-05-14T12:39:28;2.53;;;1.63;;
53271;SDS011;39160;48.580;7.756;2023-05-14T12:44:21;4.68;;;2.60;;
53271;SDS011;39160;48.580;7.756;2023-05-14T12:49:12;2.38;;;1.83;;
53271;SDS011;39160;48.580;7.756;2023-05-14T12:54:03;2.95;;;1.98;;
53271;SDS011;39160;48.580;7.756;2023-05-14T12:58:54;2.03;;;1.70;;
53271;SDS011;39160;48.580;7.756;2023-05-14T13:03:45;2.08;;;1.65;;
53271;SDS011;39160;48.580;7.756;2023-05-14T13:08:36;1.38;;;1.27;;
53271;SDS011;39160;48.580;7.756;2023-05-14T13:13:26;1.80;;;1.42;;
53271;SDS011;39160;48.580;7.756;2023-05-14T13:18:17;4.05;;;1.80;;
53271;SDS011;39160;48.580;7.756;2023-05-14T13:23:08;1.83;;;1.50;;
53271;SDS011;39160;48.580;7.756;2023-05-14T13:27:58;2.85;;;1.58;;
53271;SDS011;39160;48.580;7.756;2023-05-14T13:32:49;2.97;;;1.98;;
53271;SDS011;39160;48.580;7.756;2023-05-14T13:37:41;1.55;;;1.42;;
53271;SDS011;39160;48.580;7.756;2023-05-14T13:42:32;3.50;;;1.90;;
53271;SDS011;39160;48.580;7.756;2023-05-14T13:47:24;3.67;;;1.48;;
53271;SDS011;39160;48.580;7.756;2023-05-14T13:52:15;2.33;;;1.73;;
53271;SDS011;39160;48.580;7.756;2023-05-14T13:57:06;1.85;;;1.70;;
53271;SDS011;39160;48.580;7.756;2023-05-14T14:01:56;2.90;;;1.63;;
53271;SDS011;39160;48.580;7.756;2023-05-14T14:06:47;3.20;;;1.85;;
53271;SDS011;39160;48.580;7.756;2023-05-14T14:11:38;1.88;;;1.67;;
53271;SDS011;39160;48.580;7.756;2023-05-14T14:16:30;2.42;;;1.80;;
53271;SDS011;39160;48.580;7.756;2023-05-14T14:21:20;5.28;;;2.30;;
53271;SDS011;39160;48.580;7.756;2023-05-14T14:26:11;2.03;;;1.58;;
53271;SDS011;39160;48.580;7.756;2023-05-14T14:31:02;1.50;;;1.40;;
53271;SDS011;39160;48.580;7.756;2023-05-14T14:35:52;2.10;;;1.67;;
53271;SDS011;39160;48.580;7.756;2023-05-14T14:40:43;1.90;;;1.67;;
53271;SDS011;39160;48.580;7.756;2023-05-14T14:45:35;1.70;;;1.60;;
53271;SDS011;39160;48.580;7.756;2023-05-14T14:50:26;2.53;;;1.67;;
53271;SDS011;39160;48.580;7.756;2023-05-14T14:55:16;2.22;;;1.35;;
53271;SDS011;39160;48.580;7.756;2023-05-14T15:00:07;2.28;;;1.70;;
53271;SDS011;39160;48.580;7.756;2023-05-14T15:04:59;3.58;;;2.10;;
53271;SDS011;39160;48.580;7.756;2023-05-14T15:09:49;1.73;;;1.30;;
53271;SDS011;39160;48.580;7.756;2023-05-14T15:14:40;1.80;;;1.63;;
53271;SDS011;39160;48.580;7.756;2023-05-14T15:19:31;1.92;;;1.73;;
53271;SDS011;39160;48.580;7.756;2023-05-14T15:24:21;2.28;;;1.80;;
53271;SDS011;39160;48.580;7.756;2023-05-14T15:29:14;3.00;;;1.70;;
53271;SDS011;39160;48.580;7.756;2023-05-14T15:34:04;1.88;;;1.67;;
53271;SDS011;39160;48.580;7.756;2023-05-14T15:38:55;1.77;;;1.60;;
53271;SDS011;39160;48.580;7.756;2023-05-14T15:43:45;2.53;;;1.85;;
53271;SDS011;39160;48.580;7.756;2023-05-14T15:48:36;3.15;;;1.58;;
53271;SDS011;39160;48.580;7.756;2023-05-14T15:53:27;6.18;;;3.42;;
53271;SDS011;39160;48.580;7.756;2023-05-14T15:58:17;1.92;;;1.67;;
53271;SDS011;39160;48.580;7.756;2023-05-14T16:03:08;1.67;;;1.48;;
53271;SDS011;39160;48.580;7.756;2023-05-14T16:07:59;2.45;;;1.75;;
53271;SDS011;39160;48.580;7.756;2023-05-14T16:12:50;2.92;;;1.65;;
53271;SDS011;39160;48.580;7.756;2023-05-14T16:17:41;1.63;;;1.52;;
53271;SDS011;39160;48.580;7.756;2023-05-14T16:22:32;1.90;;;1.52;;
53271;SDS011;39160;48.580;7.756;2023-05-14T16:27:25;1.97;;;1.77;;
53271;SDS011;39160;48.580;7.756;2023-05-14T16:32:16;1.77;;;1.38;;
53271;SDS011;39160;48.580;7.756;2023-05-14T16:37:07;1.25;;;1.15;;
53271;SDS011;39160;48.580;7.756;2023-05-14T16:42:00;3.72;;;1.75;;
53271;SDS011;39160;48.580;7.756;2023-05-14T16:46:51;2.05;;;1.27;;
53271;SDS011;39160;48.580;7.756;2023-05-14T16:51:41;2.15;;;1.67;;
53271;SDS011;39160;48.580;7.756;2023-05-14T16:56:32;2.70;;;1.52;;
53271;SDS011;39160;48.580;7.756;2023-05-14T17:01:23;2.00;;;1.60;;
53271;SDS011;39160;48.580;7.756;2023-05-14T17:06:14;1.67;;;1.30;;
53271;SDS011;39160;48.580;7.756;2023-05-14T17:11:05;3.00;;;1.45;;
53271;SDS011;39160;48.580;7.756;2023-05-14T17:15:56;3.63;;;1.58;;
53271;SDS011;39160;48.580;7.756;2023-05-14T17:20:47;2.33;;;1.90;;
53271;SDS011;39160;48.580;7.756;2023-05-14T17:25:37;2.03;;;1.33;;
53271;SDS011;39160;48.580;7.756;2023-05-14T17:30:28;1.40;;;1.20;;
53271;SDS011;39160;48.580;7.756;2023-05-14T17:35:19;1.73;;;1.52;;
53271;SDS011;39160;48.580;7.756;2023-05-14T17:40:09;1.40;;;1.27;;
53271;SDS011;39160;48.580;7.756;2023-05-14T17:45:00;1.77;;;1.42;;
53271;SDS011;39160;48.580;7.756;2023-05-14T17:49:51;2.40;;;1.58;;
53271;SDS011;39160;48.580;7.756;2023-05-14T17:54:41;2.25;;;1.52;;
53271;SDS011;39160;48.580;7.756;2023-05-14T17:59:32;2.92;;;1.60;;
53271;SDS011;39160;48.580;7.756;2023-05-14T18:04:23;2.13;;;1.65;;
53271;SDS011;39160;48.580;7.756;2023-05-14T18:09:14;1.85;;;1.33;;
53271;SDS011;39160;48.580;7.756;2023-05-14T18:14:04;3.10;;;1.38;;
53271;SDS011;39160;48.580;7.756;2023-05-14T18:18:55;2.40;;;1.95;;
53271;SDS011;39160;48.580;7.756;2023-05-14T18:23:46;5.15;;;2.15;;
53271;SDS011;39160;48.580;7.756;2023-05-14T18:28:36;3.92;;;2.70;;
53271;SDS011;39160;48.580;7.756;2023-05-14T18:33:27;3.90;;;3.05;;
53271;SDS011;39160;48.580;7.756;2023-05-14T18:38:18;2.55;;;2.00;;
53271;SDS011;39160;48.580;7.756;2023-05-14T18:43:12;4.88;;;2.97;;
53271;SDS011;39160;48.580;7.756;2023-05-14T18:48:04;7.38;;;3.72;;
53271;SDS011;39160;48.580;7.756;2023-05-14T18:52:55;4.88;;;3.55;;
53271;SDS011;39160;48.580;7.756;2023-05-14T18:57:45;4.03;;;2.92;;
53271;SDS011;39160;48.580;7.756;2023-05-14T19:02:36;4.65;;;2.97;;
53271;SDS011;39160;48.580;7.756;2023-05-14T19:07:27;5.45;;;2.97;;
53271;SDS011;39160;48.580;7.756;2023-05-14T19:12:19;3.38;;;2.40;;
53271;SDS011;39160;48.580;7.756;2023-05-14T19:17:10;5.70;;;2.50;;
53271;SDS011;39160;48.580;7.756;2023-05-14T19:22:01;3.42;;;2.60;;
53271;SDS011;39160;48.580;7.756;2023-05-14T19:26:52;3.50;;;2.85;;
53271;SDS011;39160;48.580;7.756;2023-05-14T19:31:43;3.53;;;2.45;;
53271;SDS011;39160;48.580;7.756;2023-05-14T19:36:33;4.30;;;2.72;;
53271;SDS011;39160;48.580;7.756;2023-05-14T19:41:24;3.97;;;2.58;;
53271;SDS011;39160;48.580;7.756;2023-05-14T19:46:15;4.68;;;3.03;;
53271;SDS011;39160;48.580;7.756;2023-05-14T19:51:06;5.03;;;2.65;;
53271;SDS011;39160;48.580;7.756;2023-05-14T19:55:56;2.78;;;2.33;;
53271;SDS011;39160;48.580;7.756;2023-05-14T20:00:48;4.00;;;2.60;;
53271;SDS011;39160;48.580;7.756;2023-05-14T20:05:43;3.35;;;2.55;;
53271;SDS011;39160;48.580;7.756;2023-05-14T20:10:34;3.75;;;2.28;;
53271;SDS011;39160;48.580;7.756;2023-05-14T20:15:25;3.63;;;2.58;;
53271;SDS011;39160;48.580;7.756;2023-05-14T20:20:17;3.78;;;2.42;;
53271;SDS011;39160;48.580;7.756;2023-05-14T20:25:08;3.28;;;2.97;;
53271;SDS011;39160;48.580;7.756;2023-05-14T20:29:59;4.28;;;2.47;;
53271;SDS011;39160;48.580;7.756;2023-05-14T20:34:50;2.60;;;2.35;;
53271;SDS011;39160;48.580;7.756;2023-05-14T20:39:40;3.10;;;2.45;;
53271;SDS011;39160;48.580;7.756;2023-05-14T20:44:31;7.22;;;2.88;;
53271;SDS011;39160;48.580;7.756;2023-05-14T20:49:22;7.05;;;3.80;;
53271;SDS011;39160;48.580;7.756;2023-05-14T20:54:13;4.78;;;3.00;;
53271;SDS011;39160;48.580;7.756;2023-05-14T20:59:04;5.00;;;3.20;;
53271;SDS011;39160;48.580;7.756;2023-05-14T21:03:55;6.63;;;3.75;;
53271;SDS011;39160;48.580;7.756;2023-05-14T21:08:45;5.80;;;3.63;;
53271;SDS011;39160;48.580;7.756;2023-05-14T21:13:36;7.88;;;5.25;;
53271;SDS011;39160;48.580;7.756;2023-05-14T21:18:27;10.23;;;6.43;;
53271;SDS011;39160;48.580;7.756;2023-05-14T21:23:21;5.03;;;3.20;;
53271;SDS011;39160;48.580;7.756;2023-05-14T21:28:12;6.85;;;3.28;;
53271;SDS011;39160;48.580;7.756;2023-05-14T21:33:03;5.47;;;3.55;;
53271;SDS011;39160;48.580;7.756;2023-05-14T21:37:53;5.75;;;3.70;;
53271;SDS011;39160;48.580;7.756;2023-05-14T21:42:48;27.75;;;5.47;;
53271;SDS011;39160;48.580;7.756;2023-05-14T21:47:39;5.00;;;3.83;;
53271;SDS011;39160;48.580;7.756;2023-05-14T21:52:30;4.65;;;4.05;;
53271;SDS011;39160;48.580;7.756;2023-05-14T21:57:20;5.35;;;3.47;;
53271;SDS011;39160;48.580;7.756;2023-05-14T22:02:11;10.50;;;5.07;;
53271;SDS011;39160;48.580;7.756;2023-05-14T22:07:03;4.57;;;3.03;;
53271;SDS011;39160;48.580;7.756;2023-05-14T22:11:53;6.95;;;3.90;;
53271;SDS011;39160;48.580;7.756;2023-05-14T22:16:44;7.35;;;5.43;;
53271;SDS011;39160;48.580;7.756;2023-05-14T22:21:35;6.80;;;4.70;;
53271;SDS011;39160;48.580;7.756;2023-05-14T22:26:25;4.93;;;3.50;;
53271;SDS011;39160;48.580;7.756;2023-05-14T22:31:16;4.35;;;3.25;;
53271;SDS011;39160;48.580;7.756;2023-05-14T22:36:07;8.48;;;3.25;;
53271;SDS011;39160;48.580;7.756;2023-05-14T22:40:58;4.05;;;2.60;;
53271;SDS011;39160;48.580;7.756;2023-05-14T22:45:49;3.08;;;2.30;;
53271;SDS011;39160;48.580;7.756;2023-05-14T22:50:43;4.77;;;2.73;;
53271;SDS011;39160;48.580;7.756;2023-05-14T22:55:34;6.07;;;3.22;;
53271;SDS011;39160;48.580;7.756;2023-05-14T23:00:25;3.83;;;2.70;;
53271;SDS011;39160;48.580;7.756;2023-05-14T23:05:16;2.45;;;1.88;;
53271;SDS011;39160;48.580;7.756;2023-05-14T23:10:06;3.45;;;2.50;;
53271;SDS011;39160;48.580;7.756;2023-05-14T23:14:57;3.55;;;2.20;;
53271;SDS011;39160;48.580;7.756;2023-05-14T23:19:48;3.67;;;2.35;;
53271;SDS011;39160;48.580;7.756;2023-05-14T23:24:38;2.90;;;2.10;;
53271;SDS011;39160;48.580;7.756;2023-05-14T23:29:29;2.33;;;1.80;;
53271;SDS011;39160;48.580;7.756;2023-05-14T23:34:20;3.78;;;2.10;;
53271;SDS011;39160;48.580;7.756;2023-05-14T23:39:11;2.25;;;1.88;;
53271;SDS011;39160;48.580;7.756;2023-05-14T23:44:02;2.78;;;2.17;;
53271;SDS011;39160;48.580;7.756;2023-05-14T23:48:52;3.05;;;2.15;;
53271;SDS011;39160;48.580;7.756;2023-05-14T23:53:45;3.15;;;2.00;;
53271;SDS011;39160;48.580;7.756;2023-05-14T23:58:36;3.17;;;2.25;;
